Terminal Aerodrome Forecast
Issued by NWS Paducah, KY

Home | Current Version | Previous Version | Text Only | Print | Product List | Glossary On
Versions: 1 2 3 4 5 6 7 8 9 10 11 12 13 14 15
000
FTUS43 KPAH 210432 AAB
TAFEVV
TAF AMD
KEVV 210432Z 2105/2124 19007KT P6SM SCT024 OVC040
      TEMPO 2105/2107 BKN024
     FM210700 18005KT 6SM -DZ BR OVC015 WS020/22040KT
     FM211100 17005KT 6SM -DZ BR OVC008
     FM211600 18008KT 6SM BR BKN003=

USA.gov is the U.S. government's official web portal to all federal, state and local government web resources and services.